Terminal Aerodrome Forecast
Issued by NWS Boston, MA

Current Version | Previous Version | Text Only | Print | Product List | Glossary On
Versions: 1 2 3 4 5 6 7 8 9 10 11 12 13 14 15 16 17 18 19 20 21
000
FTUS41 KBOX 290541
TAFBDL
TAF
KBDL 290541Z 2906/3012 18004KT P6SM FEW150
     FM291000 14004KT P6SM SCT250
     FM291200 10004KT P6SM BKN035
     FM291400 09004KT P6SM BKN035
     FM291600 10005KT P6SM BKN035
     FM291800 16008KT P6SM VCSH BKN035
     FM292100 18008KT P6SM SCT035
     FM300300 18006KT 6SM BR VCSH BKN010
     FM300600 15004KT 3SM -SHRA BR OVC010
     FM301100 22004KT 3SM SHRA BR OVC010=

USA.gov is the U.S. government's official web portal to all federal, state and local government web resources and services.